Terminal Aerodrome Forecast
Issued by NWS

Home | Current Version | Previous Version | Text Only | Print | Product List | Glossary On
Versions: 1 2 3 4 5 6 7 8 9 10 11 12 13 14 15 16 17 18 19 20 21
403
FTUS43 KDTX 270520
TAFMBS
TAF
KMBS 270520Z 2706/2806 00000KT 1/2SM FG VV002
     FM270800 VRB03KT 4SM BR OVC004
     FM271500 24008KT P6SM BKN015 OVC050
     FM271800 26008KT P6SM SCT025 BKN050
     FM280000 VRB03KT P6SM SCT025 OVC100
     FM280300 02010KT P6SM SCT010 OVC030=

USA.gov is the U.S. government's official web portal to all federal, state and local government web resources and services.